createdAt,value
2023-05-14T00:01:36.309Z,2.28
2023-05-14T00:04:39.969Z,2.10
2023-05-14T00:07:42.350Z,2.33
2023-05-14T00:10:45.538Z,2.00
2023-05-14T00:13:47.726Z,2.22
2023-05-14T00:16:50.052Z,2.45
2023-05-14T00:19:53.938Z,2.92
2023-05-14T00:22:56.539Z,2.20
2023-05-14T00:25:58.824Z,2.25
2023-05-14T00:29:01.330Z,2.95
2023-05-14T00:32:03.918Z,2.30
2023-05-14T00:35:08.494Z,1.95
2023-05-14T00:38:16.750Z,2.05
2023-05-14T00:41:19.019Z,2.80
2023-05-14T00:44:21.389Z,2.35
2023-05-14T00:47:23.767Z,2.58
2023-05-14T00:50:27.558Z,2.40
2023-05-14T00:53:29.839Z,2.47
2023-05-14T00:56:32.462Z,3.03
2023-05-14T00:59:34.998Z,2.58
2023-05-14T01:02:38.042Z,2.17
2023-05-14T01:05:49.294Z,2.88
2023-05-14T01:08:59.934Z,2.63
2023-05-14T01:12:06.034Z,2.22
2023-05-14T01:15:10.985Z,2.22
2023-05-14T01:18:14.606Z,2.30
2023-05-14T01:21:38.429Z,2.50
2023-05-14T01:24:40.877Z,2.50
2023-05-14T01:27:47.806Z,3.10
2023-05-14T01:30:54.069Z,2.53
2023-05-14T01:33:57.632Z,3.70
2023-05-14T01:37:01.997Z,2.53
2023-05-14T01:40:05.596Z,2.67
2023-05-14T01:43:08.802Z,2.70
2023-05-14T01:46:12.012Z,3.00
2023-05-14T01:49:14.353Z,2.72
2023-05-14T01:52:20.994Z,3.13
2023-05-14T01:55:26.412Z,3.17
2023-05-14T01:58:28.977Z,2.97
2023-05-14T02:01:31.679Z,3.50
2023-05-14T02:04:34.004Z,3.13
2023-05-14T02:07:37.583Z,3.10
2023-05-14T02:10:39.829Z,3.25
2023-05-14T02:13:42.033Z,4.10
2023-05-14T02:16:44.319Z,2.95
2023-05-14T02:19:46.642Z,2.92
2023-05-14T02:22:50.283Z,3.03
2023-05-14T02:25:52.482Z,3.53
2023-05-14T02:28:54.860Z,3.47
2023-05-14T02:31:57.365Z,3.08
2023-05-14T02:34:59.787Z,3.33
2023-05-14T02:38:03.979Z,3.10
2023-05-14T02:41:06.359Z,2.60
2023-05-14T02:44:08.662Z,3.05
2023-05-14T02:47:10.922Z,3.10
2023-05-14T02:50:13.240Z,2.90
2023-05-14T02:53:16.938Z,2.75
2023-05-14T02:56:19.179Z,2.90
2023-05-14T02:59:21.825Z,2.90
2023-05-14T03:02:24.523Z,3.38
2023-05-14T03:05:28.460Z,3.13
2023-05-14T03:08:32.068Z,2.88
2023-05-14T03:11:34.373Z,2.88
2023-05-14T03:14:36.649Z,2.78
2023-05-14T03:17:38.912Z,2.90
2023-05-14T03:20:41.490Z,2.97
2023-05-14T03:23:45.181Z,2.97
2023-05-14T03:26:47.437Z,3.00
2023-05-14T03:29:50.001Z,3.60
2023-05-14T03:32:52.292Z,3.28
2023-05-14T03:35:54.740Z,2.67
2023-05-14T03:38:58.272Z,3.35
2023-05-14T03:42:00.610Z,2.88
2023-05-14T03:45:03.375Z,4.95
2023-05-14T03:48:06.515Z,2.70
2023-05-14T03:51:08.935Z,2.53
2023-05-14T03:54:13.116Z,2.65
2023-05-14T03:57:15.353Z,3.00
2023-05-14T04:00:18.121Z,2.97
2023-05-14T04:03:20.333Z,2.75
2023-05-14T04:06:22.820Z,3.00
2023-05-14T04:09:26.584Z,3.00
2023-05-14T04:12:28.826Z,3.15
2023-05-14T04:15:32.006Z,2.88
2023-05-14T04:18:35.418Z,3.22
2023-05-14T04:21:37.877Z,2.78
2023-05-14T04:24:41.459Z,2.50
2023-05-14T04:27:43.717Z,2.80
2023-05-14T04:30:46.062Z,2.70
2023-05-14T04:33:48.323Z,2.97
2023-05-14T04:36:51.348Z,2.35
2023-05-14T04:39:55.113Z,2.60
2023-05-14T04:42:57.467Z,2.60
2023-05-14T04:45:59.826Z,2.38
2023-05-14T04:49:02.264Z,2.38
2023-05-14T04:52:05.027Z,2.03
2023-05-14T04:55:10.053Z,2.15
2023-05-14T04:58:12.436Z,2.15
2023-05-14T05:01:15.248Z,2.10
2023-05-14T05:04:17.603Z,1.90
2023-05-14T05:07:19.956Z,3.03
2023-05-14T05:10:24.058Z,2.35
2023-05-14T05:13:26.470Z,2.40
2023-05-14T05:16:28.718Z,2.10
2023-05-14T05:19:42.500Z,1.58
2023-05-14T05:22:45.875Z,2.30
2023-05-14T05:25:49.459Z,2.42
2023-05-14T05:28:51.737Z,2.40
2023-05-14T05:31:54.100Z,7.65
2023-05-14T05:34:56.707Z,2.03
2023-05-14T05:38:01.602Z,2.40
2023-05-14T05:41:05.687Z,1.80
2023-05-14T05:44:08.071Z,2.33
2023-05-14T05:47:10.392Z,2.30
2023-05-14T05:50:12.730Z,2.38
2023-05-14T05:53:16.605Z,3.10
2023-05-14T05:56:21.165Z,2.28
2023-05-14T05:59:23.945Z,2.60
2023-05-14T06:02:26.397Z,3.17
2023-05-14T06:05:28.850Z,5.78
2023-05-14T06:08:31.566Z,2.83
2023-05-14T06:11:35.264Z,2.78
2023-05-14T06:14:37.643Z,3.08
2023-05-14T06:17:39.940Z,2.72
2023-05-14T06:20:42.391Z,3.63
2023-05-14T06:23:44.819Z,3.00
2023-05-14T06:26:49.334Z,2.50
2023-05-14T06:29:51.832Z,3.08
2023-05-14T06:32:54.651Z,2.25
2023-05-14T06:35:58.182Z,2.70
2023-05-14T06:39:00.483Z,3.10
2023-05-14T06:42:04.794Z,3.08
2023-05-14T06:45:07.914Z,2.58
2023-05-14T06:48:10.261Z,2.60
2023-05-14T06:51:13.371Z,2.80
2023-05-14T06:54:15.680Z,2.63
2023-05-14T06:57:19.305Z,2.60
2023-05-14T07:00:23.030Z,2.60
2023-05-14T07:03:25.819Z,2.85
2023-05-14T07:06:28.223Z,2.60
2023-05-14T07:09:30.624Z,3.15
2023-05-14T07:12:34.262Z,2.78
2023-05-14T07:15:36.727Z,3.03
2023-05-14T07:18:39.321Z,2.70
2023-05-14T07:21:41.642Z,1.90
2023-05-14T07:24:43.868Z,2.00
2023-05-14T07:27:47.723Z,1.92
2023-05-14T07:30:49.959Z,2.30
2023-05-14T07:33:52.249Z,2.10
2023-05-14T07:36:56.931Z,1.80
2023-05-14T07:40:04.337Z,1.70
2023-05-14T07:43:15.045Z,1.85
2023-05-14T07:46:32.816Z,1.33
2023-05-14T07:49:40.745Z,1.40
2023-05-14T07:52:43.601Z,1.35
2023-05-14T07:55:48.316Z,1.85
2023-05-14T07:59:01.814Z,2.15
2023-05-14T08:06:38.062Z,1.95
2023-05-14T08:09:50.616Z,1.27
2023-05-14T08:19:01.068Z,1.65
2023-05-14T08:22:23.716Z,6.93
2023-05-14T08:25:41.530Z,1.40
2023-05-14T08:28:45.046Z,4.60
2023-05-14T08:32:00.324Z,0.90
2023-05-14T08:35:57.603Z,2.03
2023-05-14T08:40:00.095Z,0.73
2023-05-14T08:44:35.089Z,1.87
2023-05-14T08:48:26.639Z,2.15
2023-05-14T09:02:52.042Z,1.17
2023-05-14T09:06:02.979Z,0.60
2023-05-14T09:09:05.777Z,0.45
2023-05-14T09:12:09.051Z,0.40
2023-05-14T09:15:11.489Z,1.58
2023-05-14T09:18:28.762Z,5.20
2023-05-14T09:31:39.814Z,0.50
2023-05-14T09:35:19.274Z,0.95
2023-05-14T09:38:37.804Z,0.52
2023-05-14T09:43:44.609Z,0.50
2023-05-14T10:05:49.271Z,0.90
2023-05-14T10:08:55.142Z,0.93
2023-05-14T10:11:59.333Z,1.25
2023-05-14T10:15:04.850Z,0.80
2023-05-14T10:18:10.516Z,1.00
2023-05-14T10:21:14.828Z,2.53
2023-05-14T10:24:18.052Z,1.38
2023-05-14T10:27:21.522Z,1.20
2023-05-14T10:30:24.667Z,0.80
2023-05-14T10:33:27.440Z,0.82
2023-05-14T10:36:31.297Z,1.27
2023-05-14T10:39:51.988Z,1.60
2023-05-14T10:42:55.949Z,1.42
2023-05-14T10:45:59.925Z,1.77
2023-05-14T10:49:02.271Z,0.82
2023-05-14T10:52:08.262Z,0.80
2023-05-14T10:55:13.557Z,1.05
2023-05-14T10:58:16.165Z,0.80
2023-05-14T11:01:18.441Z,1.48
2023-05-14T11:04:23.751Z,1.35
2023-05-14T11:07:31.213Z,1.88
2023-05-14T11:10:34.120Z,1.33
2023-05-14T11:13:36.581Z,1.42
2023-05-14T11:16:39.088Z,2.30
2023-05-14T11:19:44.469Z,1.90
2023-05-14T11:22:49.107Z,1.73
2023-05-14T11:25:52.158Z,2.20
2023-05-14T11:28:54.461Z,2.20
2023-05-14T11:31:56.793Z,1.38
2023-05-14T11:34:59.163Z,1.38
2023-05-14T11:38:03.041Z,1.40
2023-05-14T11:41:05.733Z,2.30
2023-05-14T11:44:09.144Z,2.03
2023-05-14T11:47:12.008Z,1.30
2023-05-14T11:50:14.354Z,1.77
2023-05-14T11:53:19.005Z,1.73
2023-05-14T11:56:21.677Z,2.72
2023-05-14T11:59:24.588Z,1.40
2023-05-14T12:02:28.362Z,1.75
2023-05-14T12:05:30.824Z,2.35
2023-05-14T12:08:34.487Z,1.63
2023-05-14T12:11:37.345Z,1.35
2023-05-14T12:14:42.526Z,2.10
2023-05-14T12:17:50.663Z,1.23
2023-05-14T12:20:53.152Z,1.50
2023-05-14T12:23:59.836Z,1.20
2023-05-14T12:27:02.927Z,1.60
2023-05-14T12:30:20.658Z,1.33
2023-05-14T12:33:24.433Z,1.15
2023-05-14T12:36:26.811Z,1.15
2023-05-14T12:39:32.495Z,0.70
2023-05-14T12:42:34.738Z,0.63
2023-05-14T12:45:37.061Z,0.80
2023-05-14T12:48:39.321Z,0.50
2023-05-14T12:51:41.576Z,1.05
2023-05-14T12:54:45.283Z,0.45
2023-05-14T12:57:47.618Z,0.50
2023-05-14T13:00:49.868Z,0.50
2023-05-14T13:03:52.158Z,1.77
2023-05-14T13:06:54.516Z,0.88
2023-05-14T13:09:58.210Z,0.40
2023-05-14T13:13:02.411Z,0.40
2023-05-14T13:16:05.380Z,0.40
2023-05-14T13:19:08.023Z,0.70
2023-05-14T13:22:10.547Z,0.80
2023-05-14T13:25:14.427Z,1.10
2023-05-14T13:28:16.729Z,0.60
2023-05-14T13:31:19.185Z,0.50
2023-05-14T13:34:21.548Z,0.50
2023-05-14T13:37:25.973Z,0.50
2023-05-14T13:40:29.857Z,0.52
2023-05-14T13:43:32.936Z,0.40
2023-05-14T13:46:35.330Z,0.70
2023-05-14T13:49:38.040Z,1.35
2023-05-14T13:52:40.586Z,0.57
2023-05-14T13:55:45.866Z,0.93
2023-05-14T13:58:50.642Z,1.20
2023-05-14T14:01:53.092Z,0.50
2023-05-14T14:04:55.909Z,0.95
2023-05-14T14:08:04.568Z,0.50
2023-05-14T14:11:17.702Z,0.60
2023-05-14T14:14:20.623Z,1.25
2023-05-14T14:17:22.941Z,0.55
2023-05-14T14:20:25.366Z,0.40
2023-05-14T14:23:27.799Z,0.50
2023-05-14T14:26:32.018Z,0.50
2023-05-14T14:29:34.794Z,0.90
2023-05-14T14:32:37.144Z,0.50
2023-05-14T14:35:40.010Z,0.40
2023-05-14T14:38:42.294Z,0.93
2023-05-14T14:41:47.601Z,0.50
2023-05-14T14:44:49.962Z,1.85
2023-05-14T14:47:52.399Z,0.73
2023-05-14T14:50:55.044Z,0.50
2023-05-14T14:53:57.463Z,0.45
2023-05-14T14:57:01.119Z,0.60
2023-05-14T15:00:04.243Z,1.00
2023-05-14T15:03:06.614Z,0.40
2023-05-14T15:06:09.223Z,0.40
2023-05-14T15:09:11.761Z,1.05
2023-05-14T15:12:16.971Z,0.40
2023-05-14T15:15:20.861Z,1.48
2023-05-14T15:18:23.387Z,1.30
2023-05-14T15:21:26.455Z,0.70
2023-05-14T15:24:28.907Z,0.60
2023-05-14T15:27:32.558Z,1.38
2023-05-14T15:30:34.870Z,0.50
2023-05-14T15:33:37.973Z,1.88
2023-05-14T15:36:40.722Z,0.52
2023-05-14T15:39:43.165Z,0.35
2023-05-14T15:42:46.984Z,1.63
2023-05-14T15:45:50.309Z,0.52
2023-05-14T15:48:52.560Z,0.73
2023-05-14T15:51:55.053Z,0.52
2023-05-14T15:54:59.498Z,0.68
2023-05-14T15:58:03.341Z,0.50
2023-05-14T16:01:05.869Z,0.50
2023-05-14T16:04:08.624Z,0.63
2023-05-14T16:07:12.229Z,0.52
2023-05-14T16:10:14.582Z,0.43
2023-05-14T16:13:18.419Z,0.52
2023-05-14T16:16:22.823Z,1.75
2023-05-14T16:19:26.997Z,0.50
2023-05-14T16:22:29.397Z,0.57
2023-05-14T16:25:32.036Z,0.40
2023-05-14T16:28:36.032Z,0.77
2023-05-14T16:31:38.431Z,0.45
2023-05-14T16:34:41.475Z,0.63
2023-05-14T16:37:44.028Z,1.33
2023-05-14T16:40:46.361Z,0.77
2023-05-14T16:43:51.164Z,0.50
2023-05-14T16:46:53.451Z,1.05
2023-05-14T16:49:55.868Z,0.40
2023-05-14T16:52:58.202Z,0.80
2023-05-14T16:56:00.612Z,0.38
2023-05-14T16:59:04.597Z,0.95
2023-05-14T17:02:07.490Z,1.45
2023-05-14T17:05:10.172Z,0.40
2023-05-14T17:08:12.559Z,0.47
2023-05-14T17:11:14.972Z,1.15
2023-05-14T17:14:18.684Z,0.40
2023-05-14T17:17:21.252Z,0.40
2023-05-14T17:20:23.668Z,0.40
2023-05-14T17:23:26.057Z,0.30
2023-05-14T17:26:28.482Z,0.40
2023-05-14T17:29:32.820Z,1.33
2023-05-14T17:32:35.114Z,0.63
2023-05-14T17:35:37.902Z,0.47
2023-05-14T17:38:41.194Z,0.40
2023-05-14T17:41:43.908Z,1.17
2023-05-14T17:44:51.905Z,0.60
2023-05-14T17:47:54.705Z,2.38
2023-05-14T17:50:57.297Z,0.68
2023-05-14T17:53:59.701Z,0.77
2023-05-14T17:57:02.257Z,0.50
2023-05-14T18:00:08.256Z,1.13
2023-05-14T18:03:14.724Z,0.38
2023-05-14T18:06:17.368Z,1.05
2023-05-14T18:09:27.904Z,0.95
2023-05-14T18:12:30.452Z,2.38
2023-05-14T18:15:32.939Z,0.93
2023-05-14T18:18:35.649Z,0.60
2023-05-14T18:21:38.566Z,1.88
2023-05-14T18:24:44.263Z,0.70
2023-05-14T18:27:47.045Z,1.25
2023-05-14T18:30:49.812Z,1.98
2023-05-14T18:33:52.126Z,0.90
2023-05-14T18:36:54.748Z,0.70
2023-05-14T18:39:58.493Z,1.92
2023-05-14T18:43:00.840Z,1.13
2023-05-14T18:46:03.298Z,1.17
2023-05-14T18:49:05.733Z,0.73
2023-05-14T18:52:08.246Z,3.42
2023-05-14T18:55:12.090Z,1.10
2023-05-14T18:58:14.648Z,1.00
2023-05-14T19:01:17.090Z,1.30
2023-05-14T19:04:19.368Z,0.80
2023-05-14T19:07:22.074Z,1.45
2023-05-14T19:10:25.716Z,0.80
2023-05-14T19:13:28.727Z,2.58
2023-05-14T19:16:31.481Z,0.70
2023-05-14T19:19:34.193Z,0.75
2023-05-14T19:22:36.639Z,1.08
2023-05-14T19:25:40.457Z,1.77
2023-05-14T19:28:43.358Z,0.50
2023-05-14T19:31:46.279Z,0.80
2023-05-14T19:34:49.617Z,0.40
2023-05-14T19:37:54.211Z,0.75
2023-05-14T19:40:58.277Z,1.70
2023-05-14T19:44:00.838Z,0.60
2023-05-14T19:47:05.778Z,1.30
2023-05-14T19:50:09.098Z,0.80
2023-05-14T19:53:11.437Z,1.63
2023-05-14T19:56:15.582Z,0.60
2023-05-14T19:59:17.907Z,0.60
2023-05-14T20:02:21.605Z,0.60
2023-05-14T20:05:23.890Z,0.73
2023-05-14T20:08:26.476Z,0.60
2023-05-14T20:11:30.057Z,0.70
2023-05-14T20:14:32.253Z,1.05
2023-05-14T20:17:34.497Z,1.10
2023-05-14T20:20:36.801Z,0.73
2023-05-14T20:23:39.078Z,0.30
2023-05-14T20:26:42.702Z,0.55
2023-05-14T20:29:46.610Z,0.57
2023-05-14T20:32:48.922Z,0.20
2023-05-14T20:35:53.089Z,0.38
2023-05-14T20:38:56.525Z,0.30
2023-05-14T20:42:00.155Z,0.30
2023-05-14T20:45:02.556Z,0.30
2023-05-14T20:48:10.131Z,0.50
2023-05-14T20:51:12.682Z,0.40
2023-05-14T20:54:15.054Z,0.60
2023-05-14T20:57:19.162Z,0.30
2023-05-14T21:00:21.619Z,0.30
2023-05-14T21:03:24.087Z,0.35
2023-05-14T21:06:26.451Z,0.30
2023-05-14T21:09:28.788Z,0.52
2023-05-14T21:12:32.414Z,0.30
2023-05-14T21:15:34.716Z,0.45
2023-05-14T21:18:37.121Z,0.43
2023-05-14T21:21:40.603Z,0.35
2023-05-14T21:24:42.955Z,0.30
2023-05-14T21:27:46.646Z,0.47
2023-05-14T21:30:49.641Z,0.80
2023-05-14T21:33:51.839Z,0.30
2023-05-14T21:36:54.136Z,0.60
2023-05-14T21:39:56.433Z,0.57
2023-05-14T21:43:00.370Z,0.40
2023-05-14T21:46:04.933Z,0.40
2023-05-14T21:49:07.142Z,0.40
2023-05-14T21:52:09.352Z,0.40
2023-05-14T21:55:11.703Z,0.50
2023-05-14T21:58:15.287Z,0.47
2023-05-14T22:01:17.592Z,0.30
2023-05-14T22:04:19.978Z,0.50
2023-05-14T22:07:22.430Z,0.38
2023-05-14T22:10:24.803Z,0.40
2023-05-14T22:13:28.514Z,0.63
2023-05-14T22:16:30.807Z,0.50
2023-05-14T22:19:33.255Z,0.50
2023-05-14T22:22:35.746Z,0.50
2023-05-14T22:25:37.958Z,0.50
2023-05-14T22:28:43.074Z,0.47
2023-05-14T22:31:46.952Z,0.50
2023-05-14T22:34:49.407Z,0.60
2023-05-14T22:37:53.262Z,0.50
2023-05-14T22:40:55.620Z,0.50
2023-05-14T22:43:59.197Z,0.52
2023-05-14T22:47:01.494Z,0.50
2023-05-14T22:50:04.014Z,0.55
2023-05-14T22:53:06.620Z,0.60
2023-05-14T22:56:09.119Z,0.43
2023-05-14T22:59:12.904Z,1.13
2023-05-14T23:02:15.125Z,0.50
2023-05-14T23:05:17.606Z,0.50
2023-05-14T23:08:19.940Z,1.52
2023-05-14T23:11:22.580Z,0.60
2023-05-14T23:14:26.270Z,0.93
2023-05-14T23:17:28.671Z,1.15
2023-05-14T23:20:31.062Z,1.00
2023-05-14T23:23:33.374Z,1.45
2023-05-14T23:26:35.561Z,1.10
2023-05-14T23:29:39.181Z,3.20
2023-05-14T23:32:41.777Z,1.55
2023-05-14T23:35:44.270Z,2.28
2023-05-14T23:38:46.562Z,2.28
2023-05-14T23:41:48.807Z,1.95
2023-05-14T23:44:52.495Z,2.05
2023-05-14T23:47:55.047Z,2.92
2023-05-14T23:50:57.309Z,2.17
2023-05-14T23:53:59.551Z,2.33
2023-05-14T23:57:03.127Z,3.67
